Time;durP1;ratioP1;P1;durP2;ratioP2;P2;SDS_P1;SDS_P2;PMS_P1;PMS_P2;Temp;Humidity;BMP_temperature;BMP_pressure;BME280_temperature;BME280_humidity;BME280_pressure;Samples;Min_cycle;Max_cycle;Signal;HPM_P1;HPM_P2
2022/06/03 00:01:01;;;;;;;2.45;1.80;;;;;;;10.55;91.07;98438.41;5043841;28;20049;-68
2022/06/03 00:03:51;;;;;;;2.83;2.25;;;;;;;10.53;91.48;98434.06;5043431;28;20032;-68
2022/06/03 00:06:27;;;;;;;4.30;2.13;;;;;;;10.40;92.07;98432.63;5043587;28;20040;-68
2022/06/03 00:09:30;;;;;;;2.30;2.10;;;;;;;10.43;91.77;98437.81;5043445;28;20023;-68
2022/06/03 00:11:59;;;;;;;2.30;1.85;;;;;;;10.36;91.38;98430.97;5043698;28;20018;-68
2022/06/03 00:14:50;;;;;;;2.10;1.75;;;;;;;10.25;91.37;98438.22;5043417;28;20045;-68
2022/06/03 00:18:07;;;;;;;4.03;2.13;;;;;;;10.29;91.21;98437.25;5036858;28;20041;-68
2022/06/03 00:20:41;;;;;;;2.22;1.77;;;;;;;10.25;91.96;98448.75;5024494;28;20100;-68
2022/06/03 00:23:37;;;;;;;3.05;1.98;;;;;;;10.23;92.02;98445.28;5046942;28;20357;-68
2022/06/03 00:26:27;;;;;;;3.00;2.28;;;;;;;10.21;92.48;98449.69;5046952;28;20075;-68
2022/06/03 00:29:16;;;;;;;6.93;2.45;;;;;;;10.28;92.63;98448.66;5047025;28;20033;-68
2022/06/03 00:32:15;;;;;;;2.58;2.10;;;;;;;10.28;92.58;98448.66;5046860;28;20029;-68
2022/06/03 00:35:06;;;;;;;3.75;2.05;;;;;;;10.28;92.19;98448.66;5046767;28;20033;-68
2022/06/03 00:37:47;;;;;;;5.60;2.20;;;;;;;10.22;92.45;98457.53;5047078;28;20025;-68
2022/06/03 00:40:55;;;;;;;3.13;2.28;;;;;;;10.09;92.35;98457.81;5051914;28;20021;-68
2022/06/03 00:43:32;;;;;;;2.63;1.90;;;;;;;9.99;92.09;98464.13;5046311;28;20265;-68
2022/06/03 00:46:33;;;;;;;2.47;1.88;;;;;;;10.01;92.49;98459.72;5046648;28;20367;-68
2022/06/03 00:49:18;;;;;;;2.58;2.10;;;;;;;10.08;93.16;98456.09;5039873;28;20029;-68
2022/06/03 00:52:08;;;;;;;2.72;2.33;;;;;;;10.00;93.73;98458.00;5046551;28;20041;-68
2022/06/03 00:55:04;;;;;;;3.60;1.73;;;;;;;9.97;93.92;98463.31;5046486;28;20136;-68
2022/06/03 00:57:54;;;;;;;4.28;2.28;;;;;;;10.05;93.71;98450.88;5046426;28;20025;-68
2022/06/03 01:00:26;;;;;;;3.15;2.00;;;;;;;9.99;93.25;98450.97;5046453;28;20021;-68
2022/06/03 01:03:07;;;;;;;2.83;2.35;;;;;;;9.83;93.59;98444.28;5046254;28;20048;-68
2022/06/03 01:05:50;;;;;;;3.05;2.28;;;;;;;9.86;93.41;98446.88;5046529;28;20228;-68
2022/06/03 01:08:21;;;;;;;3.22;2.50;;;;;;;9.76;94.19;98442.69;5049952;28;20382;-68
2022/06/03 01:11:08;;;;;;;3.97;2.45;;;;;;;9.62;95.96;98442.09;5066155;28;20028;-68
2022/06/03 01:13:59;;;;;;;1.92;1.67;;;;;;;9.66;95.48;98452.53;5066129;28;20035;-68
2022/06/03 01:16:58;;;;;;;2.42;2.00;;;;;;;9.57;95.00;98451.81;5066121;28;20311;-68
2022/06/03 01:20:00;;;;;;;3.17;2.25;;;;;;;9.65;94.19;98465.69;5066005;28;20202;-68
2022/06/03 01:22:41;;;;;;;3.13;2.20;;;;;;;9.60;94.01;98462.25;5065985;28;20025;-68
2022/06/03 01:25:25;;;;;;;2.70;2.20;;;;;;;9.69;94.07;98446.34;5065872;28;20036;-68
2022/06/03 01:27:53;;;;;;;3.17;2.25;;;;;;;9.55;93.65;98453.63;5064973;28;20216;-68
2022/06/03 01:30:25;;;;;;;3.60;2.13;;;;;;;9.50;93.96;98447.56;5059183;28;20075;-68
2022/06/03 01:33:11;;;;;;;3.42;2.30;;;;;;;9.59;94.67;98444.78;5045778;28;20217;-68
2022/06/03 01:36:14;;;;;;;6.05;2.65;;;;;;;9.68;95.15;98440.19;5045494;28;20029;-68
2022/06/03 01:38:42;;;;;;;;;;;;;;;9.57;94.07;98436.03;5047196;28;20049;-68
2022/06/03 01:41:20;;;;;;;4.20;2.67;;;;;;;9.59;94.17;98439.53;5045572;28;19908;-68
2022/06/03 01:44:16;;;;;;;4.72;2.22;;;;;;;9.61;93.43;98442.97;5045725;28;20033;-68
2022/06/03 01:47:20;;;;;;;2.90;2.20;;;;;;;9.53;92.82;98439.63;5045777;28;20025;-68
2022/06/03 01:50:04;;;;;;;2.33;2.13;;;;;;;9.40;94.12;98438.13;5045295;28;20048;-68
2022/06/03 01:52:44;;;;;;;2.80;2.33;;;;;;;9.20;95.36;98435.84;5045439;28;20033;-68
2022/06/03 01:55:21;;;;;;;3.80;2.38;;;;;;;9.22;96.62;98438.44;5045314;28;20224;-68
2022/06/03 01:58:05;;;;;;;3.38;2.55;;;;;;;9.28;97.17;98446.22;5045319;28;20025;-68
2022/06/03 02:00:34;;;;;;;3.10;2.30;;;;;;;9.30;95.78;98452.31;5045209;28;20040;-68
2022/06/03 02:03:26;;;;;;;3.75;2.20;;;;;;;9.06;94.96;98436.97;5045008;28;20025;-68
2022/06/03 02:06:07;;;;;;;2.92;2.20;;;;;;;9.08;94.99;98440.44;5045555;28;20053;-68
2022/06/03 02:08:57;;;;;;;3.45;2.42;;;;;;;9.17;94.96;98445.53;5045052;28;20256;-68
2022/06/03 02:11:40;;;;;;;3.22;2.22;;;;;;;9.09;95.30;98439.53;5058854;28;20029;-68
2022/06/03 02:14:34;;;;;;;3.45;2.28;;;;;;;9.08;96.08;98435.19;5064860;28;20020;-68
2022/06/03 02:18:06;;;;;;;8.88;2.35;;;;;;;9.26;95.95;98440.09;5064911;28;20056;-68
2022/06/03 02:20:46;;;;;;;6.90;2.45;;;;;;;9.26;95.15;98434.84;5042504;28;20037;-68
2022/06/03 02:23:27;;;;;;;2.92;2.08;;;;;;;9.18;94.70;98442.00;5042966;28;20056;-68
2022/06/03 02:26:08;;;;;;;5.03;2.47;;;;;;;9.19;94.77;98443.72;5043019;28;20044;-68
2022/06/03 02:32:45;;;;;;;3.30;2.20;;;;;;;9.03;96.27;98437.00;5042871;28;20032;-68
2022/06/03 02:35:29;;;;;;;3.45;2.63;;;;;;;9.01;96.52;98439.66;5007356;28;20045;-68
2022/06/03 02:38:19;;;;;;;3.80;2.25;;;;;;;9.09;95.97;98432.53;5039157;28;20033;-68
2022/06/03 02:41:12;;;;;;;3.90;2.03;;;;;;;9.03;95.59;98427.38;5022963;28;20030;-68
2022/06/03 02:43:40;;;;;;;3.25;2.00;;;;;;;9.05;96.06;98441.34;5038242;28;20049;-68
2022/06/03 02:46:29;;;;;;;7.45;2.65;;;;;;;9.13;95.77;98436.84;5042684;28;20136;-68
2022/06/03 02:49:06;;;;;;;3.13;2.00;;;;;;;9.13;95.15;98433.34;5042669;28;20025;-68
2022/06/03 02:51:41;;;;;;;3.00;2.13;;;;;;;9.13;95.57;98428.06;5043996;28;20352;-68
2022/06/03 02:54:19;;;;;;;3.58;2.38;;;;;;;9.01;95.54;98417.81;5044257;28;20044;-68
2022/06/03 02:56:53;;;;;;;3.95;2.50;;;;;;;9.09;95.39;98427.28;5044259;28;20034;-68
2022/06/03 02:59:37;;;;;;;2.90;2.17;;;;;;;9.16;95.64;98428.91;5044196;28;20055;-68
2022/06/03 03:02:41;;;;;;;2.88;2.38;;;;;;;9.20;95.31;98432.34;5044046;28;20032;-68
2022/06/03 03:05:31;;;;;;;3.03;2.05;;;;;;;8.95;94.07;98428.41;5022466;28;20030;-68
2022/06/03 03:08:35;;;;;;;5.25;2.22;;;;;;;8.83;95.63;98419.81;5022651;28;20037;-68
2022/06/03 03:11:23;;;;;;;2.92;2.30;;;;;;;8.59;96.27;98419.34;5006321;28;20045;-68
2022/06/03 03:14:30;;;;;;;3.28;2.38;;;;;;;8.72;98.66;98423.50;5031313;28;20101;-68
2022/06/03 03:17:14;;;;;;;6.57;2.25;;;;;;;8.89;98.09;98420.63;5012351;28;20088;-68
2022/06/03 03:19:45;;;;;;;3.10;2.22;;;;;;;8.94;96.75;98427.53;5042226;28;20352;-68
2022/06/03 03:22:35;;;;;;;1.80;1.65;;;;;;;9.07;96.61;98417.69;5042117;28;20029;-68
2022/06/03 03:25:29;;;;;;;3.08;1.95;;;;;;;9.14;95.96;98414.09;5042185;28;20037;-68
2022/06/03 03:28:13;;;;;;;4.65;2.45;;;;;;;9.13;95.24;98407.06;5042110;28;20025;-68
2022/06/03 03:31:07;;;;;;;3.05;2.28;;;;;;;9.15;95.58;98402.69;5042150;28;20029;-68
2022/06/03 03:34:01;;;;;;;2.88;2.05;;;;;;;9.18;95.81;98411.38;5007279;28;20375;-68
2022/06/03 03:36:26;;;;;;;2.65;2.25;;;;;;;9.12;95.92;98418.47;5043331;28;20067;-68
2022/06/03 03:39:22;;;;;;;4.25;2.38;;;;;;;9.25;96.04;98407.75;5043784;28;20249;-68
2022/06/03 03:42:19;;;;;;;4.65;2.80;;;;;;;9.32;95.11;98403.22;5043825;28;20037;-68
2022/06/03 03:45:03;;;;;;;5.30;2.90;;;;;;;9.35;95.51;98397.94;5043631;28;20052;-68
2022/06/03 03:47:52;;;;;;;4.13;2.53;;;;;;;9.33;94.96;98394.47;5057391;28;20056;-68
2022/06/03 03:50:48;;;;;;;3.65;2.28;;;;;;;9.29;94.70;98393.66;5063916;28;20233;-68
2022/06/03 03:53:51;;;;;;;3.17;2.20;;;;;;;9.23;95.11;98385.00;5067538;28;20035;-68
2022/06/03 03:56:53;;;;;;;2.50;2.13;;;;;;;9.37;95.28;98390.91;5067577;28;20052;-68
2022/06/03 03:59:46;;;;;;;2.45;2.03;;;;;;;9.35;94.92;98382.16;5067717;28;20108;-68
2022/06/03 04:02:39;;;;;;;7.00;2.22;;;;;;;9.33;95.77;98384.81;5067315;28;20273;-68
2022/06/03 04:05:42;;;;;;;3.75;2.15;;;;;;;9.26;95.30;98392.84;5067259;28;20092;-68
2022/06/03 04:08:35;;;;;;;3.63;2.30;;;;;;;9.30;95.29;98392.75;5067263;28;20079;-68
2022/06/03 04:11:38;;;;;;;3.25;2.70;;;;;;;9.37;94.38;98383.91;5067437;28;20021;-68
2022/06/03 04:14:31;;;;;;;3.25;2.25;;;;;;;9.36;94.44;98378.66;5067188;28;20021;-68
2022/06/03 04:17:25;;;;;;;3.53;2.03;;;;;;;9.42;95.21;98379.41;5067143;28;20067;-68
2022/06/03 04:20:02;;;;;;;2.20;1.92;;;;;;;9.52;95.18;98386.22;5050162;28;20063;-68
2022/06/03 04:22:59;;;;;;;2.47;2.00;;;;;;;9.65;95.23;98381.59;5047030;28;20021;-68
2022/06/03 04:25:43;;;;;;;3.75;2.33;;;;;;;9.70;95.13;98384.97;5045324;28;20025;-68
2022/06/03 04:29:00;;;;;;;3.50;2.40;;;;;;;9.77;94.57;98382.22;5046260;28;20132;-68
2022/06/03 04:31:45;;;;;;;3.05;2.25;;;;;;;9.67;95.29;98385.94;5045298;28;20029;-68
2022/06/03 04:34:16;;;;;;;7.82;2.30;;;;;;;9.68;96.31;98394.69;5047758;28;20096;-70
2022/06/03 04:36:50;;;;;;;2.13;1.90;;;;;;;9.85;96.01;98397.84;5047679;28;20275;-71
2022/06/03 04:39:38;;;;;;;2.55;2.20;;;;;;;9.69;95.53;98399.03;5046747;28;20029;-72
2022/06/03 04:42:21;;;;;;;3.22;2.08;;;;;;;9.91;94.61;98405.59;5046727;28;20039;-72
2022/06/03 04:45:11;;;;;;;4.05;2.70;;;;;;;9.86;94.11;98407.44;5046534;28;20021;-71
2022/06/03 04:47:43;;;;;;;2.97;1.90;;;;;;;10.13;93.90;98405.13;5046584;28;20025;-72
2022/06/03 04:50:29;;;;;;;4.10;2.60;;;;;;;10.31;94.55;98406.50;5046385;28;20087;-72
2022/06/03 04:53:26;;;;;;;3.72;2.42;;;;;;;10.55;94.32;98406.84;5046585;28;20021;-72
2022/06/03 04:56:22;;;;;;;2.65;2.30;;;;;;;10.74;93.00;98407.28;5046448;28;20139;-72
2022/06/03 04:59:06;;;;;;;2.35;1.95;;;;;;;10.82;92.58;98415.84;5046357;28;20036;-72
2022/06/03 05:02:13;;;;;;;3.28;2.28;;;;;;;10.97;92.48;98423.38;5045843;28;20043;-72
2022/06/03 05:04:44;;;;;;;5.25;2.10;;;;;;;11.28;90.51;98427.00;5046203;28;20052;-72
2022/06/03 05:07:27;;;;;;;2.60;2.10;;;;;;;11.58;88.53;98426.19;5046222;28;20036;-72
2022/06/03 05:10:07;;;;;;;3.58;2.30;;;;;;;12.23;86.61;98427.91;5046209;28;20206;-72
2022/06/03 05:12:57;;;;;;;7.03;2.25;;;;;;;12.83;84.92;98436.59;5046115;28;20025;-72
2022/06/03 05:16:07;;;;;;;2.67;1.90;;;;;;;13.74;80.52;98438.88;5046104;28;20017;-72
2022/06/03 05:18:44;;;;;;;2.38;1.60;;;;;;;14.52;79.63;98420.97;5045754;28;20044;-72
2022/06/03 05:21:47;;;;;;;2.58;1.90;;;;;;;15.29;75.48;98415.22;5045999;28;20252;-72
2022/06/03 05:25:04;;;;;;;6.53;2.13;;;;;;;15.73;74.70;98427.50;5045829;28;20025;-72
2022/06/03 05:28:07;;;;;;;3.55;2.08;;;;;;;16.46;72.19;98433.91;5044174;28;20306;-72
2022/06/03 05:30:51;;;;;;;2.45;1.80;;;;;;;16.73;70.40;98435.31;5044138;28;20033;-72
2022/06/03 05:33:22;;;;;;;3.30;1.63;;;;;;;17.33;70.13;98439.47;5044033;28;20029;-72
2022/06/03 05:36:15;;;;;;;3.15;1.70;;;;;;;17.54;66.56;98433.13;5044001;28;20057;-72
2022/06/03 05:38:56;;;;;;;2.75;1.80;;;;;;;18.09;68.10;98444.44;5043915;28;20064;-72
2022/06/03 05:44:16;;;;;;;2.17;1.90;;;;;;;17.63;67.20;98447.75;5043795;28;20028;-72
2022/06/03 05:46:59;;;;;;;2.80;2.08;;;;;;;18.31;65.78;98453.03;5043781;28;20054;-72
2022/06/03 05:49:39;;;;;;;2.70;1.85;;;;;;;18.12;64.23;98449.59;5043617;28;20057;-72
2022/06/03 05:52:43;;;;;;;1.85;1.50;;;;;;;18.64;63.16;98453.94;5043639;28;20229;-72
2022/06/03 05:55:25;;;;;;;3.28;1.85;;;;;;;19.09;63.31;98462.06;5043488;28;20025;-72
2022/06/03 05:58:14;;;;;;;1.80;1.33;;;;;;;20.03;63.10;98452.94;5044133;28;20040;-72
2022/06/03 06:00:54;;;;;;;3.75;1.88;;;;;;;19.74;61.56;98455.66;5045204;28;20024;-72
2022/06/03 06:03:32;;;;;;;4.35;1.90;;;;;;;20.06;60.32;98451.94;5045014;28;20025;-72
2022/06/03 06:06:16;;;;;;;3.78;1.75;;;;;;;20.17;59.78;98445.00;5045145;28;20037;-72
2022/06/03 06:09:10;;;;;;;2.28;1.83;;;;;;;19.60;58.94;98437.75;5045070;28;20053;-72
2022/06/03 06:11:58;;;;;;;1.77;1.50;;;;;;;20.21;60.77;98445.66;5044746;28;20067;-72
2022/06/03 06:14:42;;;;;;;2.25;1.52;;;;;;;20.72;55.97;98450.47;5044689;28;20022;-73
2022/06/03 06:17:29;;;;;;;2.65;1.60;;;;;;;20.81;55.22;98448.06;5044877;28;20022;-73
2022/06/03 06:20:05;;;;;;;2.00;1.45;;;;;;;20.77;55.22;98445.69;5044797;28;20030;-73
2022/06/03 06:22:35;;;;;;;3.05;1.60;;;;;;;20.41;55.12;98427.44;5044860;28;20336;-73
2022/06/03 06:25:13;;;;;;;1.85;1.45;;;;;;;21.28;54.61;98442.38;5044751;28;20079;-73
2022/06/03 06:27:57;;;;;;;2.53;1.88;;;;;;;21.96;52.78;98440.50;5044760;28;20044;-73
2022/06/03 06:30:40;;;;;;;2.75;1.40;;;;;;;22.10;52.02;98443.09;5044783;28;20217;-73
2022/06/03 06:33:30;;;;;;;1.67;1.45;;;;;;;22.51;52.60;98438.44;5044642;28;20028;-73
2022/06/03 06:36:10;;;;;;;1.63;1.42;;;;;;;22.86;51.54;98431.41;5044597;28;20033;-73
2022/06/03 06:39:00;;;;;;;1.88;1.30;;;;;;;22.80;51.31;98424.66;5044519;28;20292;-73
2022/06/03 06:41:46;;;;;;;1.88;1.40;;;;;;;22.58;50.59;98421.78;5044458;28;20093;-73
2022/06/03 06:44:33;;;;;;;1.45;1.30;;;;;;;23.00;51.66;98420.56;5044336;28;20033;-73
2022/06/03 06:47:22;;;;;;;1.35;1.25;;;;;;;22.78;51.36;98406.97;5044451;28;20032;-73
2022/06/03 06:50:21;;;;;;;3.63;1.30;;;;;;;22.42;53.65;98406.84;5044288;28;20033;-73
2022/06/03 06:52:57;;;;;;;4.57;1.40;;;;;;;22.61;52.67;98396.56;5044368;28;20053;-73
2022/06/03 06:55:34;;;;;;;1.90;1.70;;;;;;;22.66;52.26;98410.53;5044288;28;20369;-73
2022/06/03 06:58:09;;;;;;;2.85;1.35;;;;;;;23.02;52.19;98407.84;5044242;28;20021;-73
2022/06/03 07:00:40;;;;;;;1.60;1.20;;;;;;;23.19;51.19;98408.34;5044216;28;20067;-73
2022/06/03 07:03:16;;;;;;;3.17;1.73;;;;;;;22.66;52.73;98402.47;5044057;28;20027;-73
2022/06/03 07:05:54;;;;;;;1.88;1.38;;;;;;;22.28;52.51;98401.63;5044169;28;20033;-72
2022/06/03 07:08:24;;;;;;;2.63;1.65;;;;;;;22.50;52.90;98393.81;5044116;28;20221;-72
2022/06/03 07:11:07;;;;;;;2.08;1.30;;;;;;;23.92;52.53;98400.16;5044047;28;20066;-72
2022/06/03 07:13:37;;;;;;;3.55;1.10;;;;;;;23.54;51.01;98389.63;5044029;28;20018;-73
2022/06/03 07:19:48;;;;;;;2.08;1.27;;;;;;;23.28;51.90;98371.91;5044010;28;20021;-73
2022/06/03 07:22:17;;;;;;;5.10;1.83;;;;;;;22.82;52.48;98369.06;5043906;28;20029;-72
2022/06/03 07:25:01;;;;;;;4.22;1.73;;;;;;;23.81;51.50;98368.72;5043485;28;20258;-72
2022/06/03 07:27:57;;;;;;;2.15;1.50;;;;;;;23.97;51.48;98371.97;5043802;28;20072;-72
2022/06/03 07:30:30;;;;;;;2.78;1.58;;;;;;;24.95;48.33;98367.66;5043886;28;20032;-73
2022/06/03 07:33:34;;;;;;;2.13;1.30;;;;;;;25.41;47.28;98370.16;5043822;28;20026;-73
2022/06/03 07:36:13;;;;;;;2.38;1.45;;;;;;;26.05;46.71;98382.63;5043841;28;20037;-73
2022/06/03 07:38:48;;;;;;;2.20;1.50;;;;;;;26.65;45.82;98380.03;5043765;28;20025;-73
2022/06/03 07:41:33;;;;;;;1.73;1.20;;;;;;;27.21;44.72;98374.94;5043761;28;20048;-73
2022/06/03 07:44:02;;;;;;;4.68;1.30;;;;;;;26.85;42.95;98368.31;5043671;28;20026;-73
2022/06/03 07:46:43;;;;;;;3.10;1.70;;;;;;;27.24;43.37;98363.91;5043709;28;20194;-73
2022/06/03 07:49:09;;;;;;;2.17;1.27;;;;;;;27.08;44.30;98368.91;5043468;28;20029;-73
2022/06/03 07:51:42;;;;;;;1.80;1.38;;;;;;;27.64;42.85;98367.34;5043659;28;20034;-73
2022/06/03 07:54:22;;;;;;;2.88;1.60;;;;;;;27.56;43.54;98367.22;5043623;28;20017;-73
2022/06/03 07:56:47;;;;;;;4.18;1.50;;;;;;;27.69;43.28;98365.06;5043666;28;20108;-73
2022/06/03 07:59:20;;;;;;;2.97;1.58;;;;;;;26.79;44.01;98362.56;5043599;28;20029;-73
2022/06/03 08:02:16;;;;;;;2.78;1.45;;;;;;;25.28;47.84;98362.19;5043482;28;20021;-73
2022/06/03 08:04:42;;;;;;;2.05;1.38;;;;;;;25.13;48.56;98360.75;5043369;28;20029;-73
2022/06/03 08:13:03;;;;;;;2.08;1.60;;;;;;;26.38;47.08;98351.84;5043468;28;20027;-73
2022/06/03 08:15:37;;;;;;;4.65;1.50;;;;;;;27.09;47.96;98362.53;5043469;28;20321;-73
2022/06/03 08:18:05;;;;;;;1.77;1.40;;;;;;;26.97;45.69;98360.94;5043413;28;20025;-73
2022/06/03 08:20:35;;;;;;;3.97;1.70;;;;;;;27.83;44.22;98372.75;5043456;28;20228;-73
2022/06/03 08:23:03;;;;;;;1.55;1.30;;;;;;;27.77;44.49;98362.50;5043281;28;20027;-73
2022/06/03 08:25:33;;;;;;;8.38;1.70;;;;;;;27.97;42.66;98366.91;5043320;28;20071;-73
2022/06/03 08:27:59;;;;;;;3.38;1.67;;;;;;;28.62;42.63;98372.38;5043357;28;20021;-73
2022/06/03 08:30:27;;;;;;;2.47;1.73;;;;;;;29.16;42.24;98372.44;5043390;28;20060;-73
2022/06/03 08:33:00;;;;;;;2.58;1.83;;;;;;;29.38;41.17;98371.16;5043483;28;20035;-73
2022/06/03 08:35:30;;;;;;;2.88;1.60;;;;;;;29.32;41.78;98370.91;5043307;28;20025;-72
2022/06/03 08:38:01;;;;;;;2.72;1.75;;;;;;;28.73;43.09;98361.34;5045967;28;20022;-73
2022/06/03 08:40:32;;;;;;;2.28;1.55;;;;;;;29.57;41.54;98359.28;5046752;28;20128;-73
2022/06/03 08:43:06;;;;;;;1.98;1.60;;;;;;;28.91;42.17;98356.84;5046693;28;20364;-73
2022/06/03 08:45:53;;;;;;;5.22;1.50;;;;;;;29.62;42.71;98352.47;5046651;28;20029;-73
2022/06/03 08:48:26;;;;;;;2.72;1.70;;;;;;;29.81;40.68;98352.28;5046554;28;20021;-73
2022/06/03 08:50:56;;;;;;;2.13;1.23;;;;;;;29.70;41.10;98351.69;5046462;28;20341;-73
2022/06/03 08:53:43;;;;;;;1.50;1.40;;;;;;;29.07;42.61;98354.38;5046585;28;20017;-73
2022/06/03 08:56:19;;;;;;;2.15;1.58;;;;;;;29.82;42.89;98353.13;5046468;28;20049;-73
2022/06/03 08:59:00;;;;;;;2.40;1.83;;;;;;;29.38;43.05;98345.91;5046419;28;20280;-73
2022/06/03 09:01:27;;;;;;;2.50;1.52;;;;;;;29.71;41.97;98340.69;5046417;28;20032;-73
2022/06/03 09:04:11;;;;;;;2.08;1.60;;;;;;;30.12;40.55;98339.16;5046402;28;20025;-73
2022/06/03 09:07:10;;;;;;;2.30;1.75;;;;;;;30.32;39.11;98337.94;5046277;28;20021;-73
2022/06/03 09:09:54;;;;;;;2.70;1.70;;;;;;;29.23;42.70;98328.44;5046233;28;20088;-73
2022/06/03 09:12:47;;;;;;;3.53;1.67;;;;;;;29.72;42.78;98333.38;5046203;28;20088;-73
2022/06/03 09:15:19;;;;;;;2.30;1.63;;;;;;;29.55;42.17;98334.19;5046079;28;20025;-73
2022/06/03 09:17:48;;;;;;;2.55;1.92;;;;;;;29.15;42.02;98321.94;5046087;28;20025;-73
2022/06/03 09:20:20;;;;;;;4.45;2.05;;;;;;;29.19;43.00;98327.88;5046069;28;20031;-73
2022/06/03 09:22:47;;;;;;;2.88;1.95;;;;;;;29.28;42.93;98332.41;5046300;28;20353;-73
2022/06/03 09:25:16;;;;;;;3.22;1.73;;;;;;;28.57;43.92;98319.66;5044789;28;20036;-73
2022/06/03 09:27:43;;;;;;;2.65;1.77;;;;;;;28.21;46.15;98315.03;5046135;28;20272;-73
2022/06/03 09:30:13;;;;;;;2.22;1.52;;;;;;;28.52;45.08;98320.09;5045822;28;20248;-73
2022/06/03 09:32:45;;;;;;;5.28;2.30;;;;;;;28.11;44.34;98316.91;5045780;28;20021;-73
2022/06/03 09:35:17;;;;;;;2.50;1.80;;;;;;;27.71;46.26;98318.97;5045984;28;20041;-73
2022/06/03 09:37:55;;;;;;;3.80;1.98;;;;;;;28.26;44.41;98332.56;5045690;28;20065;-73
2022/06/03 09:40:28;;;;;;;6.30;1.80;;;;;;;28.69;44.78;98337.41;5045610;28;20025;-72
2022/06/03 09:43:11;;;;;;;2.85;1.77;;;;;;;29.16;43.40;98342.63;5045542;28;20037;-73
2022/06/03 09:45:39;;;;;;;3.25;2.13;;;;;;;28.60;44.80;98331.03;5045548;28;20045;-73
2022/06/03 09:48:04;;;;;;;3.20;2.03;;;;;;;28.97;44.85;98339.13;5044896;28;20029;-73
2022/06/03 09:50:31;;;;;;;2.90;2.20;;;;;;;29.46;45.75;98351.41;5045297;28;20103;-73
2022/06/03 09:53:00;;;;;;;2.00;1.75;;;;;;;29.11;44.86;98342.19;5045322;28;20069;-73
2022/06/03 09:55:31;;;;;;;2.88;1.88;;;;;;;29.55;43.49;98339.63;5045421;28;20035;-73
2022/06/03 09:57:59;;;;;;;3.83;1.70;;;;;;;28.99;45.23;98343.41;5045304;28;20071;-73
2022/06/03 10:00:29;;;;;;;3.28;1.98;;;;;;;29.47;44.94;98348.53;5045287;28;20021;-73
2022/06/03 10:02:56;;;;;;;2.38;1.90;;;;;;;29.77;43.64;98356.31;5044998;28;20094;-73
2022/06/03 10:05:23;;;;;;;2.85;1.92;;;;;;;30.22;41.33;98356.22;5045234;28;20088;-73
2022/06/03 10:08:01;;;;;;;5.07;2.28;;;;;;;30.20;42.79;98355.50;5045153;28;20021;-73
2022/06/03 10:13:12;;;;;;;3.00;2.15;;;;;;;30.06;42.38;98342.47;5045021;28;20339;-73
2022/06/03 10:15:44;;;;;;;2.88;1.92;;;;;;;29.97;42.04;98335.28;5044983;28;20084;-73
2022/06/03 10:18:15;;;;;;;4.65;2.10;;;;;;;29.81;42.68;98336.00;5043757;28;20021;-73
2022/06/03 10:20:41;;;;;;;;;;;;;;;29.54;42.46;98329.78;5045320;28;20402;-73
2022/06/03 10:23:10;;;;;;;3.22;1.90;;;;;;;29.17;44.39;98336.19;5044777;28;20101;-73
2022/06/03 10:25:41;;;;;;;2.42;2.15;;;;;;;29.80;42.68;98328.03;5044816;28;20040;-73
2022/06/03 10:28:08;;;;;;;2.50;2.03;;;;;;;29.47;45.00;98328.69;5044687;28;20025;-73
2022/06/03 10:30:37;;;;;;;2.65;1.85;;;;;;;29.27;44.89;98326.13;5044645;28;20021;-73
2022/06/03 10:33:05;;;;;;;3.15;2.08;;;;;;;28.94;45.06;98332.16;5044665;28;20021;-73
2022/06/03 10:35:38;;;;;;;6.47;2.42;;;;;;;28.70;46.46;98326.41;5044606;28;20033;-73
2022/06/03 10:38:04;;;;;;;3.53;2.08;;;;;;;28.99;46.46;98331.69;5044589;28;20025;-73
2022/06/03 10:40:30;;;;;;;2.60;2.30;;;;;;;28.97;46.46;98322.84;5047531;28;20354;-73
2022/06/03 10:43:00;;;;;;;2.05;1.70;;;;;;;28.66;45.38;98314.19;5051038;28;20095;-73
2022/06/03 10:45:31;;;;;;;2.47;2.28;;;;;;;28.55;47.10;98311.69;5044727;28;20378;-73
2022/06/03 10:47:56;;;;;;;4.88;2.92;;;;;;;28.50;47.69;98303.13;5046445;28;20028;-73
2022/06/03 10:50:33;;;;;;;4.90;2.50;;;;;;;28.48;46.58;98294.34;5052982;28;20040;-73
2022/06/03 11:01:54;;;;;;;3.20;2.35;;;;;;;28.71;47.22;98284.81;5045821;28;20079;-73
2022/06/03 11:04:27;;;;;;;2.28;2.08;;;;;;;28.34;49.30;98275.81;5064131;28;20316;-73
2022/06/03 11:06:53;;;;;;;3.67;2.47;;;;;;;27.70;50.32;98277.53;5061023;28;20021;-73
2022/06/03 11:09:19;;;;;;;5.20;2.30;;;;;;;28.10;49.85;98277.31;5053136;28;20260;-73
2022/06/03 11:11:56;;;;;;;2.78;2.33;;;;;;;27.87;46.94;98270.56;5045525;28;20309;-73
2022/06/03 11:14:34;;;;;;;3.83;2.40;;;;;;;27.43;50.17;98260.34;5063538;28;20084;-73
2022/06/03 11:17:15;;;;;;;5.53;2.35;;;;;;;27.96;51.59;98286.75;5063153;28;20033;-73
2022/06/03 11:19:45;;;;;;;4.20;2.38;;;;;;;28.39;49.25;98278.06;5063425;28;20052;-73
2022/06/03 11:22:33;;;;;;;5.28;2.50;;;;;;;28.16;48.99;98277.56;5048338;28;20376;-73
2022/06/03 11:25:13;;;;;;;4.78;2.60;;;;;;;27.58;48.14;98265.16;5063005;28;20032;-73
2022/06/03 11:27:42;;;;;;;2.92;2.38;;;;;;;27.39;50.72;98257.06;5055407;28;20030;-73
2022/06/03 11:30:15;;;;;;;3.13;2.17;;;;;;;27.30;52.19;98254.38;5051806;28;20044;-72
2022/06/03 11:32:45;;;;;;;4.85;2.40;;;;;;;27.23;52.61;98248.63;5050036;28;20071;-72
2022/06/03 11:35:20;;;;;;;6.40;2.25;;;;;;;26.52;54.41;98230.03;5047233;28;20085;-72
2022/06/03 11:37:52;;;;;;;3.38;2.33;;;;;;;26.66;51.35;98221.56;5045791;28;20313;-72
2022/06/03 11:40:18;;;;;;;9.30;2.20;;;;;;;26.84;54.35;98219.88;5049085;28;20027;-73
2022/06/03 11:42:50;;;;;;;4.10;2.72;;;;;;;26.77;56.07;98213.34;5050740;28;20017;-73
2022/06/03 11:45:21;;;;;;;4.93;2.60;;;;;;;26.57;53.38;98222.34;5043244;28;20029;-73
2022/06/03 11:47:51;;;;;;;3.72;2.17;;;;;;;26.49;53.15;98222.22;5054845;28;20082;-73
2022/06/03 11:50:20;;;;;;;2.92;2.30;;;;;;;26.33;53.18;98224.56;5062926;28;20029;-73
2022/06/03 11:52:48;;;;;;;4.45;2.80;;;;;;;26.08;54.37;98242.09;5051438;28;20025;-73
2022/06/03 11:55:14;;;;;;;3.70;2.65;;;;;;;26.10;56.18;98260.84;5058299;28;20248;-73
2022/06/03 11:57:49;;;;;;;4.90;2.30;;;;;;;25.93;57.50;98285.69;5062805;28;20080;-70
2022/06/03 12:00:19;;;;;;;5.22;2.75;;;;;;;25.77;58.86;98307.72;5063046;28;20024;-72
2022/06/03 12:03:17;;;;;;;3.22;2.13;;;;;;;25.70;60.00;98321.84;5051585;28;20025;-73
2022/06/03 12:05:51;;;;;;;3.72;2.38;;;;;;;25.61;62.13;98328.03;5043611;28;20040;-73
2022/06/03 12:08:36;;;;;;;4.40;2.55;;;;;;;25.43;64.66;98340.38;5051777;28;20029;-72
2022/06/03 12:11:08;;;;;;;6.28;2.20;;;;;;;25.18;65.53;98353.16;5060516;28;20024;-72
2022/06/03 12:13:34;;;;;;;3.75;2.65;;;;;;;25.20;70.51;98356.59;5048362;28;20036;-72
2022/06/03 12:16:01;;;;;;;3.75;2.78;;;;;;;25.12;69.98;98353.66;5051978;28;20025;-72
2022/06/03 12:18:32;;;;;;;4.38;2.90;;;;;;;25.16;73.19;98355.09;5066927;28;20020;-72
2022/06/03 12:21:04;;;;;;;3.92;2.95;;;;;;;25.18;72.02;98354.97;5065124;28;20087;-72
2022/06/03 12:23:35;;;;;;;4.00;3.10;;;;;;;25.06;70.44;98346.06;5051591;28;20036;-72
2022/06/03 12:26:20;;;;;;;3.65;2.40;;;;;;;24.99;67.22;98344.88;5047095;28;20017;-72
2022/06/03 12:28:49;;;;;;;4.78;2.78;;;;;;;25.02;68.22;98347.31;5047011;28;20315;-72
2022/06/03 12:31:17;;;;;;;5.75;2.63;;;;;;;24.74;70.60;98347.00;5047360;28;20021;-72
2022/06/03 12:33:56;;;;;;;3.55;2.78;;;;;;;24.64;73.80;98357.66;5046851;28;20021;-72
2022/06/03 12:36:33;;;;;;;3.80;2.95;;;;;;;24.50;73.51;98360.56;5046827;28;20071;-72
2022/06/03 12:39:05;;;;;;;4.28;2.90;;;;;;;24.28;74.24;98357.88;5046856;28;20052;-72
2022/06/03 12:41:45;;;;;;;4.38;2.72;;;;;;;24.34;73.85;98360.06;5046830;28;20025;-72
2022/06/03 12:44:23;;;;;;;4.22;3.05;;;;;;;24.30;73.98;98353.19;5045173;28;20021;-72
2022/06/03 12:46:48;;;;;;;7.20;2.67;;;;;;;24.37;75.09;98365.22;5046427;28;20052;-72
2022/06/03 12:49:37;;;;;;;5.72;3.50;;;;;;;24.29;76.09;98370.31;5046460;28;20199;-72
2022/06/03 12:52:09;;;;;;;4.35;3.30;;;;;;;24.18;71.78;98367.63;5059143;28;20032;-72
2022/06/03 12:55:09;;;;;;;5.97;3.00;;;;;;;24.03;76.44;98374.19;5066549;28;20013;-72
2022/06/03 12:58:00;;;;;;;3.58;2.88;;;;;;;23.93;73.81;98367.78;5062462;28;20032;-72
2022/06/03 13:00:34;;;;;;;4.87;3.10;;;;;;;23.71;76.10;98353.41;5066346;28;20024;-72
2022/06/03 13:03:06;;;;;;;5.15;3.40;;;;;;;23.54;80.42;98368.13;5066455;28;20267;-72
2022/06/03 13:05:34;;;;;;;4.30;3.13;;;;;;;23.59;74.56;98365.09;5066294;28;20029;-72
2022/06/03 13:08:01;;;;;;;5.70;3.25;;;;;;;23.53;77.42;98371.78;5066253;28;20024;-72